Time;durP1;ratioP1;P1;durP2;ratioP2;P2;SDS_P1;SDS_P2;PMS_P1;PMS_P2;Temp;Humidity;BMP_temperature;BMP_pressure;BME280_temperature;BME280_humidity;BME280_pressure;Samples;Min_cycle;Max_cycle;Signal;HPM_P1;HPM_P2
2022/06/13 00:01:22;;;;;;;12.02;11.63;;;;;;;;;;5133217;27;20193;-75
2022/06/13 00:03:49;;;;;;;12.40;12.00;;;;;;;;;;5133503;27;20241;-75
2022/06/13 00:06:17;;;;;;;12.40;12.00;;;;;;;;;;5133516;27;20193;-75
2022/06/13 00:08:45;;;;;;;12.55;12.15;;;;;;;;;;5133445;27;20226;-75
2022/06/13 00:11:14;;;;;;;11.90;11.50;;;;;;;;;;5133429;27;20192;-75
2022/06/13 00:13:42;;;;;;;12.10;11.70;;;;;;;;;;5132984;27;20260;-75
2022/06/13 00:16:09;;;;;;;11.20;10.90;;;;;;;;;;5133064;27;20192;-75
2022/06/13 00:18:36;;;;;;;10.88;10.57;;;;;;;;;;5133049;27;20189;-75
2022/06/13 00:21:03;;;;;;;10.88;10.57;;;;;;;;;;5132929;27;20640;-75
2022/06/13 00:23:30;;;;;;;11.23;10.93;;;;;;;;;;5133510;27;20228;-75
2022/06/13 00:25:58;;;;;;;11.40;11.10;;;;;;;;;;5133288;28;20256;-75
2022/06/13 00:28:25;;;;;;;11.77;11.38;;;;;;;;;;5132363;27;20192;-75
2022/06/13 00:30:52;;;;;;;11.55;11.25;;;;;;;;;;5132886;28;20192;-74
2022/06/13 00:33:19;;;;;;;11.35;11.05;;;;;;;;;;5133092;28;20253;-74
2022/06/13 00:35:46;;;;;;;10.90;10.60;;;;;;;;;;5132861;28;20192;-74
2022/06/13 00:38:14;;;;;;;10.80;10.50;;;;;;;;;;5132795;28;20192;-75
2022/06/13 00:40:41;;;;;;;10.98;10.68;;;;;;;;;;5132827;28;20192;-75
2022/06/13 00:43:10;;;;;;;11.15;10.85;;;;;;;;;;5133010;28;20219;-75
2022/06/13 00:45:38;;;;;;;10.95;10.65;;;;;;;;;;5132690;28;20223;-75
2022/06/13 00:48:05;;;;;;;11.90;11.50;;;;;;;;;;5132782;28;20200;-75
2022/06/13 00:50:33;;;;;;;12.30;11.90;;;;;;;;;;5132645;28;20196;-75
2022/06/13 00:53:03;;;;;;;12.60;12.20;;;;;;;;;;5133862;28;20200;-75
2022/06/13 00:55:33;;;;;;;11.75;11.35;;;;;;;;;;5132844;28;20197;-75
2022/06/13 00:58:01;;;;;;;12.93;12.52;;;;;;;;;;5132990;28;20204;-74
2022/06/13 01:00:30;;;;;;;12.52;12.13;;;;;;;;;;5132659;28;20228;-75
2022/06/13 01:02:57;;;;;;;12.15;11.75;;;;;;;;;;5132500;28;20220;-75
2022/06/13 01:05:26;;;;;;;11.50;11.20;;;;;;;;;;5132584;28;20193;-74
2022/06/13 01:07:54;;;;;;;11.50;11.20;;;;;;;;;;5132532;28;20669;-73
2022/06/13 01:13:07;;;;;;;9.98;9.68;;;;;;;;;;5132586;28;20716;-73
2022/06/13 01:15:58;;;;;;;9.90;9.60;;;;;;;;;;5132551;28;20651;-74
2022/06/13 01:18:33;;;;;;;9.90;9.60;;;;;;;;;;5132831;28;20565;-74
2022/06/13 01:21:14;;;;;;;9.43;9.13;;;;;;;;;;5132492;28;20184;-74
2022/06/13 01:23:55;;;;;;;9.80;9.50;;;;;;;;;;5132348;28;20315;-74
2022/06/13 01:26:40;;;;;;;9.70;9.40;;;;;;;;;;5132407;28;20227;-74
2022/06/13 01:29:23;;;;;;;9.32;9.02;;;;;;;;;;5118892;28;20193;-74
2022/06/13 01:31:54;;;;;;;9.52;9.23;;;;;;;;;;5132407;28;20193;-75
2022/06/13 01:34:26;;;;;;;9.25;8.95;;;;;;;;;;5132342;28;20188;-75
2022/06/13 01:37:02;;;;;;;9.50;9.20;;;;;;;;;;5132353;28;20245;-76
2022/06/13 01:39:36;;;;;;;9.30;9.00;;;;;;;;;;5132669;27;20739;-75
2022/06/13 01:42:08;;;;;;;9.50;9.20;;;;;;;;;;5135924;27;20211;-75
2022/06/13 01:44:43;;;;;;;9.27;8.98;;;;;;;;;;5135863;27;20193;-73
2022/06/13 01:47:13;;;;;;;9.23;8.93;;;;;;;;;;5135943;27;20191;-74
2022/06/13 01:49:47;;;;;;;9.52;9.23;;;;;;;;;;5135782;27;20676;-75
2022/06/13 01:52:26;;;;;;;9.88;9.57;;;;;;;;;;5135791;27;20184;-74
2022/06/13 01:54:56;;;;;;;9.30;9.00;;;;;;;;;;5135707;27;20189;-74
2022/06/13 01:57:28;;;;;;;10.23;9.93;;;;;;;;;;5135650;27;20192;-73
2022/06/13 01:59:56;;;;;;;10.25;9.95;;;;;;;;;;5135562;27;20192;-74
2022/06/13 02:02:28;;;;;;;10.00;9.70;;;;;;;;;;5135459;27;20231;-74
2022/06/13 02:04:59;;;;;;;9.75;9.45;;;;;;;;;;5135466;27;20185;-75
2022/06/13 02:07:28;;;;;;;9.80;9.50;;;;;;;;;;5136378;27;20180;-74
2022/06/13 02:09:57;;;;;;;9.77;9.48;;;;;;;;;;5135932;27;20311;-73
2022/06/13 02:12:25;;;;;;;9.55;9.25;;;;;;;;;;5135160;27;20188;-75
2022/06/13 02:14:56;;;;;;;9.95;9.65;;;;;;;;;;5135325;27;20188;-74
2022/06/13 02:17:24;;;;;;;10.20;9.90;;;;;;;;;;5135317;27;20196;-75
2022/06/13 02:19:55;;;;;;;10.10;9.80;;;;;;;;;;5135259;27;20200;-73
2022/06/13 02:22:24;;;;;;;9.90;9.60;;;;;;;;;;5135241;27;20904;-75
2022/06/13 02:24:54;;;;;;;9.40;9.10;;;;;;;;;;5135402;27;20298;-75
2022/06/13 02:27:23;;;;;;;9.32;9.02;;;;;;;;;;5135045;27;20615;-74
2022/06/13 02:29:55;;;;;;;8.95;8.65;;;;;;;;;;5135026;27;20279;-73
2022/06/13 02:32:23;;;;;;;9.10;8.80;;;;;;;;;;5134996;27;20193;-73
2022/06/13 02:34:54;;;;;;;9.00;8.70;;;;;;;;;;5135169;27;20204;-73
2022/06/13 02:37:24;;;;;;;9.10;8.80;;;;;;;;;;5134821;27;20193;-75
2022/06/13 02:39:55;;;;;;;9.20;8.90;;;;;;;;;;5134914;27;20192;-74
2022/06/13 02:42:25;;;;;;;9.02;8.73;;;;;;;;;;5135205;27;20216;-75
2022/06/13 02:44:55;;;;;;;8.98;8.68;;;;;;;;;;5134689;27;20192;-74
2022/06/13 02:47:25;;;;;;;8.93;8.63;;;;;;;;;;5134722;27;20283;-76
2022/06/13 02:49:55;;;;;;;8.65;8.35;;;;;;;;;;5134636;27;20275;-73
2022/06/13 02:52:28;;;;;;;8.77;8.48;;;;;;;;;;5134143;27;20247;-75
2022/06/13 02:54:56;;;;;;;8.98;8.68;;;;;;;;;;5134876;27;20211;-74
2022/06/13 02:57:33;;;;;;;9.00;8.70;;;;;;;;;;5134716;27;20256;-74
2022/06/13 03:00:07;;;;;;;9.10;8.80;;;;;;;;;;5134504;27;20195;-75
2022/06/13 03:02:38;;;;;;;9.40;9.10;;;;;;;;;;5134313;27;20686;-75
2022/06/13 03:05:09;;;;;;;9.20;8.90;;;;;;;;;;5134252;27;20192;-75
2022/06/13 03:07:40;;;;;;;9.10;8.80;;;;;;;;;;5134300;27;20192;-75
2022/06/13 03:10:09;;;;;;;9.40;9.10;;;;;;;;;;5134290;27;20188;-75
2022/06/13 03:12:37;;;;;;;9.48;9.18;;;;;;;;;;5133995;27;20200;-75
2022/06/13 03:15:07;;;;;;;9.30;9.00;;;;;;;;;;5134134;27;20646;-75
2022/06/13 03:17:38;;;;;;;9.70;9.40;;;;;;;;;;5134392;27;20192;-75
2022/06/13 03:20:08;;;;;;;9.90;9.60;;;;;;;;;;5134042;27;20242;-74
2022/06/13 03:22:40;;;;;;;9.40;9.10;;;;;;;;;;5134178;27;20693;-75
2022/06/13 03:25:10;;;;;;;9.80;9.50;;;;;;;;;;5134147;27;20221;-75
2022/06/13 03:27:39;;;;;;;9.50;9.20;;;;;;;;;;5133922;27;20650;-75
2022/06/13 03:30:08;;;;;;;9.70;9.40;;;;;;;;;;5133809;27;20245;-75
2022/06/13 03:32:37;;;;;;;9.32;9.02;;;;;;;;;;5133786;27;20192;-74
2022/06/13 03:35:06;;;;;;;9.10;8.80;;;;;;;;;;5133722;27;20220;-75
2022/06/13 03:37:35;;;;;;;9.13;8.82;;;;;;;;;;5133673;27;20192;-73
2022/06/13 03:40:05;;;;;;;9.70;9.40;;;;;;;;;;5133676;27;20200;-75
2022/06/13 03:42:39;;;;;;;10.00;9.70;;;;;;;;;;5133524;27;20219;-74
2022/06/13 03:45:09;;;;;;;11.95;11.48;;;;;;;;;;5133632;27;20192;-73
2022/06/13 03:47:37;;;;;;;13.45;12.85;;;;;;;;;;5133775;27;20203;-75
2022/06/13 03:50:09;;;;;;;14.00;13.40;;;;;;;;;;5134295;27;20203;-74
2022/06/13 03:52:39;;;;;;;14.10;13.50;;;;;;;;;;5133710;27;20192;-76
2022/06/13 03:55:07;;;;;;;14.60;13.90;;;;;;;;;;5133677;27;20192;-75
2022/06/13 03:57:38;;;;;;;15.07;14.38;;;;;;;;;;5133306;27;20231;-75
2022/06/13 04:00:08;;;;;;;15.68;14.88;;;;;;;;;;5133351;27;20189;-75
2022/06/13 04:02:36;;;;;;;15.70;14.90;;;;;;;;;;5132391;27;20196;-77
2022/06/13 04:05:04;;;;;;;15.73;14.93;;;;;;;;;;5133247;27;20578;-74
2022/06/13 04:07:33;;;;;;;16.02;15.23;;;;;;;;;;5133494;27;20201;-75
2022/06/13 04:10:01;;;;;;;16.42;15.55;;;;;;;;;;5133463;27;20196;-75
2022/06/13 04:12:34;;;;;;;17.50;16.60;;;;;;;;;;5132917;27;20196;-76
2022/06/13 04:15:31;;;;;;;17.88;16.90;;;;;;;;;;5133404;27;20189;-75
2022/06/13 04:18:06;;;;;;;18.20;17.20;;;;;;;;;;5049819;28;20195;-75
2022/06/13 04:20:38;;;;;;;18.40;17.40;;;;;;;;;;5117668;27;20199;-76
2022/06/13 04:23:10;;;;;;;19.25;18.15;;;;;;;;;;5132903;27;20237;-76
2022/06/13 04:25:41;;;;;;;19.10;18.00;;;;;;;;;;5133385;27;20253;-75
2022/06/13 04:28:12;;;;;;;19.20;18.00;;;;;;;;;;5132907;27;20191;-75
2022/06/13 04:30:41;;;;;;;18.10;16.95;;;;;;;;;;5133293;28;20184;-75
2022/06/13 04:33:12;;;;;;;17.77;16.67;;;;;;;;;;5132869;28;20193;-72
2022/06/13 04:35:39;;;;;;;16.50;15.60;;;;;;;;;;5133193;28;20192;-72
2022/06/13 04:38:09;;;;;;;17.60;16.60;;;;;;;;;;5132894;28;20672;-75
2022/06/13 04:40:38;;;;;;;20.08;18.77;;;;;;;;;;5132811;28;20196;-76
2022/06/13 04:43:07;;;;;;;19.13;17.92;;;;;;;;;;5132977;28;20220;-76
2022/06/13 04:45:38;;;;;;;19.30;18.10;;;;;;;;;;5133853;28;20192;-74
2022/06/13 04:48:05;;;;;;;18.70;17.60;;;;;;;;;;5133243;28;20338;-76
2022/06/13 04:50:36;;;;;;;19.10;18.08;;;;;;;;;;5132735;28;20654;-76
2022/06/13 04:53:04;;;;;;;17.50;16.50;;;;;;;;;;5132800;28;20192;-76
2022/06/13 04:55:33;;;;;;;17.98;16.98;;;;;;;;;;5132807;28;20196;-72
2022/06/13 04:58:00;;;;;;;17.77;16.77;;;;;;;;;;5133164;28;20196;-76
2022/06/13 05:00:30;;;;;;;16.23;15.32;;;;;;;;;;5133171;28;20192;-76
2022/06/13 05:02:56;;;;;;;17.25;16.25;;;;;;;;;;5132571;28;20649;-76
2022/06/13 05:05:37;;;;;;;17.70;16.70;;;;;;;;;;5133509;28;20261;-75
2022/06/13 05:08:14;;;;;;;17.70;16.70;;;;;;;;;;5132831;28;20196;-76
2022/06/13 05:10:42;;;;;;;16.95;15.95;;;;;;;;;;5132703;28;20197;-75
2022/06/13 05:13:09;;;;;;;18.20;17.10;;;;;;;;;;5132740;28;20311;-76
2022/06/13 05:15:37;;;;;;;20.98;19.67;;;;;;;;;;5136268;27;20298;-77
2022/06/13 05:18:27;;;;;;;19.40;18.30;;;;;;;;;;5136442;27;20206;-74
2022/06/13 05:21:00;;;;;;;20.00;18.80;;;;;;;;;;5136523;27;20624;-77
2022/06/13 05:23:35;;;;;;;19.00;17.90;;;;;;;;;;5137029;27;20238;-71
2022/06/13 05:26:03;;;;;;;18.70;17.60;;;;;;;;;;5136386;27;20188;-76
2022/06/13 05:28:31;;;;;;;19.92;18.83;;;;;;;;;;5136275;27;20658;-76
2022/06/13 05:30:59;;;;;;;20.15;19.05;;;;;;;;;;5136895;27;20218;-78
2022/06/13 05:33:28;;;;;;;19.70;18.60;;;;;;;;;;5136420;27;20200;-74
2022/06/13 05:35:57;;;;;;;18.77;17.77;;;;;;;;;;5136768;27;20200;-77
2022/06/13 05:38:32;;;;;;;19.50;18.40;;;;;;;;;;5136295;27;20196;-77
2022/06/13 05:40:59;;;;;;;20.58;19.38;;;;;;;;;;5136096;27;20188;-73
2022/06/13 05:43:26;;;;;;;20.95;19.85;;;;;;;;;;5136587;27;20220;-77
2022/06/13 05:45:53;;;;;;;21.60;20.40;;;;;;;;;;5137535;27;20646;-74
2022/06/13 05:48:21;;;;;;;21.15;19.95;;;;;;;;;;5136352;27;20188;-76
2022/06/13 05:50:48;;;;;;;21.02;19.92;;;;;;;;;;5136750;27;20197;-77
2022/06/13 05:53:16;;;;;;;20.27;19.27;;;;;;;;;;5136780;27;20253;-76
2022/06/13 05:55:45;;;;;;;19.85;18.85;;;;;;;;;;5135801;27;20674;-77
2022/06/13 05:58:13;;;;;;;20.40;19.40;;;;;;;;;;5135841;27;20196;-77
2022/06/13 06:00:43;;;;;;;19.60;18.60;;;;;;;;;;5135639;27;20192;-73
2022/06/13 06:03:10;;;;;;;18.95;17.95;;;;;;;;;;5135850;27;20279;-77
2022/06/13 06:05:38;;;;;;;19.40;18.50;;;;;;;;;;5135864;27;20192;-77
2022/06/13 06:08:05;;;;;;;19.40;18.40;;;;;;;;;;5135587;27;20671;-77
2022/06/13 06:10:37;;;;;;;20.30;19.30;;;;;;;;;;5136263;27;20197;-73
2022/06/13 06:13:05;;;;;;;20.50;19.40;;;;;;;;;;5135358;27;20224;-73
2022/06/13 06:15:32;;;;;;;20.30;19.20;;;;;;;;;;5135691;27;20283;-77
2022/06/13 06:17:59;;;;;;;19.45;18.45;;;;;;;;;;5135771;27;20306;-73
2022/06/13 06:20:26;;;;;;;19.90;18.90;;;;;;;;;;5136161;27;20327;-73
2022/06/13 06:22:53;;;;;;;20.33;19.23;;;;;;;;;;5135372;27;20651;-77
2022/06/13 06:25:20;;;;;;;21.50;20.40;;;;;;;;;;5134723;27;20767;-77
2022/06/13 06:27:47;;;;;;;19.48;18.48;;;;;;;;;;5135039;27;20193;-73
2022/06/13 06:30:17;;;;;;;19.85;18.85;;;;;;;;;;5135377;27;20731;-77
2022/06/13 06:32:44;;;;;;;18.65;17.65;;;;;;;;;;5135293;27;20196;-73
2022/06/13 06:35:11;;;;;;;18.58;17.67;;;;;;;;;;5134887;27;20243;-76
2022/06/13 06:37:39;;;;;;;19.33;18.33;;;;;;;;;;5135247;27;20670;-73
2022/06/13 06:40:07;;;;;;;19.33;18.33;;;;;;;;;;5134816;27;20200;-77
2022/06/13 06:42:34;;;;;;;19.25;18.25;;;;;;;;;;5134803;27;20199;-77
2022/06/13 06:45:02;;;;;;;18.77;17.80;;;;;;;;;;5135083;27;20232;-76
2022/06/13 06:47:30;;;;;;;21.67;20.48;;;;;;;;;;5134643;27;20246;-77
2022/06/13 06:49:57;;;;;;;19.65;18.65;;;;;;;;;;5134965;27;20192;-76
2022/06/13 06:52:24;;;;;;;20.02;19.02;;;;;;;;;;5134587;27;20200;-77
2022/06/13 07:00:20;;;;;;;19.15;18.15;;;;;;;;;;5135232;27;20187;-76
2022/06/13 07:02:49;;;;;;;18.65;17.65;;;;;;;;;;5134728;27;20664;-73
2022/06/13 07:05:16;;;;;;;22.63;20.98;;;;;;;;;;5134297;27;20231;-76
2022/06/13 07:07:43;;;;;;;20.85;19.75;;;;;;;;;;5134256;27;20670;-77
2022/06/13 07:10:11;;;;;;;19.10;18.05;;;;;;;;;;5134319;27;20654;-77
2022/06/13 07:12:38;;;;;;;20.05;18.95;;;;;;;;;;5134248;27;20593;-75
2022/06/13 07:15:06;;;;;;;20.02;18.92;;;;;;;;;;5134173;27;20673;-74
2022/06/13 07:17:33;;;;;;;19.63;18.52;;;;;;;;;;5134144;27;20279;-73
2022/06/13 07:20:01;;;;;;;20.60;19.40;;;;;;;;;;5134004;27;20188;-77
2022/06/13 07:22:28;;;;;;;19.77;18.67;;;;;;;;;;5134297;27;20189;-79
2022/06/13 07:24:55;;;;;;;19.85;18.75;;;;;;;;;;5133849;27;20724;-75
2022/06/13 07:27:22;;;;;;;20.02;18.92;;;;;;;;;;5133906;27;20220;-77
2022/06/13 07:29:49;;;;;;;20.50;19.38;;;;;;;;;;5134266;27;20193;-77
2022/06/13 07:32:18;;;;;;;19.98;18.88;;;;;;;;;;5133749;27;20192;-77
2022/06/13 07:34:47;;;;;;;20.00;18.90;;;;;;;;;;5134023;27;20283;-78
2022/06/13 07:38:16;;;;;;;20.58;19.48;;;;;;;;;;5134032;27;20199;-74
2022/06/13 07:40:05;;;;;;;20.60;19.40;;;;;;;;;;5133432;27;20261;-78
2022/06/13 07:42:34;;;;;;;20.95;19.75;;;;;;;;;;5133669;27;20193;-78
2022/06/13 07:45:01;;;;;;;20.40;19.20;;;;;;;;;;5133537;27;20314;-77
2022/06/13 07:47:28;;;;;;;21.15;19.95;;;;;;;;;;5134314;27;20196;-76
2022/06/13 07:49:55;;;;;;;21.70;20.40;;;;;;;;;;5133531;27;20249;-73
2022/06/13 07:52:24;;;;;;;21.50;20.20;;;;;;;;;;5133445;27;20201;-77
2022/06/13 07:54:51;;;;;;;21.35;20.13;;;;;;;;;;5133430;27;20703;-77
2022/06/13 07:57:19;;;;;;;21.27;20.08;;;;;;;;;;5133412;27;20196;-78
2022/06/13 12:52:26;;;;;;;24.60;22.80;;;;;;;-141.02;54.94;83009.47;5151623;27;20532;-77
2022/06/13 12:54:56;;;;;;;24.05;22.45;;;;;;;-141.02;61.07;83176.53;5150984;27;20233;-77
2022/06/13 12:57:42;;;;;;;24.65;22.85;;;;;;;-141.02;55.98;82995.88;5150989;27;20716;-79
2022/06/13 13:00:16;;;;;;;24.70;22.90;;;;;;;-141.02;54.44;82968.69;5150808;27;20247;-73
2022/06/13 13:03:28;;;;;;;24.17;22.38;;;;;;;-141.02;57.31;83089.13;5150807;27;20240;-76
2022/06/13 13:06:08;;;;;;;25.10;23.20;;;;;;;-141.02;53.91;83011.44;5100617;27;20660;-76
2022/06/13 13:08:52;;;;;;;26.08;24.17;;;;;;;-141.02;53.75;83007.53;5150776;27;20227;-76
2022/06/13 13:11:35;;;;;;;25.98;24.08;;;;;;;-141.02;55.98;83104.66;5150975;27;20192;-76
2022/06/13 13:14:11;;;;;;;24.50;22.70;;;;;;;-141.02;58.18;83190.16;5150946;27;20222;-75
2022/06/13 13:16:50;;;;;;;24.80;23.00;;;;;;;-141.02;56.53;83131.88;5150828;27;20188;-75
2022/06/13 13:19:30;;;;;;;23.33;21.63;;;;;;;-141.02;55.63;83120.22;5150782;27;20184;-76
2022/06/13 13:22:04;;;;;;;24.40;22.60;;;;;;;-141.02;55.89;83126.03;5150506;27;20184;-76
2022/06/13 13:24:48;;;;;;;23.58;21.77;;;;;;;-141.02;56.53;83106.63;5150370;27;20183;-76
2022/06/13 13:27:18;;;;;;;23.73;21.92;;;;;;;-141.02;57.76;83129.94;5150416;27;20192;-76
2022/06/13 13:29:55;;;;;;;24.27;22.48;;;;;;;-141.02;56.39;83081.34;5150214;27;20618;-76
2022/06/13 13:32:38;;;;;;;24.40;22.60;;;;;;;-141.02;57.25;83131.88;5150251;27;20680;-76
2022/06/13 13:35:16;;;;;;;24.27;22.58;;;;;;;-141.02;61.04;83283.41;5150298;27;20215;-76
2022/06/13 13:37:49;;;;;;;24.13;22.48;;;;;;;-141.02;63.47;83333.91;5150495;27;20232;-77
2022/06/13 13:40:23;;;;;;;24.63;22.92;;;;;;;-141.02;64.08;83380.53;5150108;27;20211;-77
2022/06/13 13:42:56;;;;;;;27.05;25.15;;;;;;;-141.02;79.62;83570.91;5150380;27;20180;-77
2022/06/13 13:45:33;;;;;;;25.10;23.40;;;;;;;-141.02;81.70;83679.72;5150326;27;20710;-77
2022/06/13 13:48:11;;;;;;;23.42;21.92;;;;;;;-141.02;92.11;83854.59;5150311;27;20215;-77
2022/06/13 13:50:46;;;;;;;22.67;21.27;;;;;;;-141.02;96.98;83936.19;5149949;27;20280;-76
2022/06/13 13:53:17;;;;;;;24.08;22.58;;;;;;;-141.02;97.68;84002.25;5135869;27;20237;-76
2022/06/13 13:55:50;;;;;;;23.45;22.05;;;;;;;-141.02;100.00;84056.66;5136268;27;20280;-76
2022/06/13 13:58:23;;;;;;;21.50;20.40;;;;;;;-141.02;100.00;84146.06;5135967;27;20192;-76
2022/06/13 14:00:57;;;;;;;21.80;20.60;;;;;;;-141.02;100.00;84202.41;5135832;27;20223;-76
2022/06/13 14:03:36;;;;;;;20.88;19.77;;;;;;;-141.02;100.00;84107.19;5136009;27;20232;-77
2022/06/13 14:06:09;;;;;;;19.95;18.95;;;;;;;-141.02;100.00;84194.63;5136182;27;20228;-77
2022/06/13 14:08:38;;;;;;;20.02;18.98;;;;;;;-141.02;100.00;84151.88;5136187;27;20184;-78
2022/06/13 14:11:10;;;;;;;20.85;19.75;;;;;;;-141.02;100.00;84161.59;5136041;27;20276;-78
2022/06/13 14:13:38;;;;;;;20.30;19.20;;;;;;;-141.02;100.00;84130.50;5135766;27;20561;-78
2022/06/13 14:16:14;;;;;;;20.92;19.83;;;;;;;-141.02;100.00;84118.84;5135550;27;20287;-77
2022/06/13 14:19:11;;;;;;;22.65;21.35;;;;;;;-141.02;100.00;84056.66;5135892;27;20210;-78
2022/06/13 14:22:02;;;;;;;21.45;20.17;;;;;;;-141.02;100.00;83982.84;5135470;27;20719;-78
2022/06/13 14:24:30;;;;;;;22.02;20.73;;;;;;;-141.02;95.33;83938.16;5135809;27;20661;-78
2022/06/13 14:27:20;;;;;;;22.05;20.75;;;;;;;-141.02;90.31;83936.19;5136344;27;20283;-78
2022/06/13 14:29:48;;;;;;;21.98;20.67;;;;;;;-141.02;83.70;83739.97;5132422;27;20203;-78
2022/06/13 14:32:31;;;;;;;23.30;21.90;;;;;;;-141.02;77.99;83611.72;5135338;27;20197;-76
2022/06/13 14:35:11;;;;;;;23.45;21.95;;;;;;;-141.02;69.97;83508.75;5135659;27;20188;-77
2022/06/13 14:38:20;;;;;;;23.90;22.35;;;;;;;-141.02;70.12;83613.66;5135617;27;20216;-78
2022/06/13 14:40:55;;;;;;;23.83;22.33;;;;;;;-141.02;74.07;83670.00;5095857;27;20669;-79
2022/06/13 14:43:30;;;;;;;24.10;22.60;;;;;;;-141.02;76.89;83656.41;5135504;27;20184;-80
2022/06/13 14:46:01;;;;;;;22.90;21.40;;;;;;;-141.02;69.35;83510.69;5135070;27;20216;-77
2022/06/13 14:48:41;;;;;;;22.95;21.45;;;;;;;-141.02;68.63;83466.00;5136151;27;20279;-80
2022/06/13 14:51:24;;;;;;;22.30;20.90;;;;;;;-141.02;66.46;83458.25;5134813;27;20220;-77
2022/06/13 14:53:52;;;;;;;22.30;20.83;;;;;;;-141.02;67.79;83522.34;5134900;27;20280;-77
2022/06/13 14:56:41;;;;;;;22.25;20.75;;;;;;;-141.02;67.35;83493.22;5135150;27;20192;-79
2022/06/13 14:59:13;;;;;;;22.25;20.75;;;;;;;-141.02;64.97;83936.19;5134853;27;20241;-78
2022/06/13 15:01:42;;;;;;;21.95;20.45;;;;;;;-141.02;68.53;83504.88;5134999;27;20220;-79
2022/06/13 15:04:24;;;;;;;22.10;20.70;;;;;;;-141.02;71.82;83502.94;5133973;27;20206;-79
2022/06/13 15:07:23;;;;;;;22.80;21.30;;;;;;;-141.02;69.03;83541.78;5134689;27;20192;-78
2022/06/13 15:09:54;;;;;;;22.40;20.90;;;;;;;-141.02;68.45;83493.22;5130796;27;20196;-78
2022/06/13 15:12:24;;;;;;;22.42;20.92;;;;;;;-141.02;70.90;83483.50;5134690;27;20188;-79
2022/06/13 15:14:56;;;;;;;22.58;21.08;;;;;;;-141.02;68.55;83415.50;5134892;27;20193;-78
2022/06/13 15:17:25;;;;;;;23.20;21.70;;;;;;;-141.02;68.99;83431.03;5134651;27;20722;-80
2022/06/13 15:19:56;;;;;;;23.35;21.85;;;;;;;-141.02;67.09;83399.97;5134714;27;20235;-79
2022/06/13 15:22:28;;;;;;;23.20;21.70;;;;;;;-141.02;68.10;83462.13;5134556;27;20284;-77
2022/06/13 15:25:00;;;;;;;22.73;21.23;;;;;;;-141.02;69.80;83526.25;5134328;27;20216;-78
2022/06/13 15:27:28;;;;;;;23.17;21.67;;;;;;;-141.02;71.56;83567.03;5134292;27;20279;-79
2022/06/13 15:30:20;;;;;;;23.35;21.85;;;;;;;-141.02;74.39;83625.31;5134631;27;20197;-80
2022/06/13 15:32:47;;;;;;;22.88;21.38;;;;;;;-141.02;75.10;83640.88;5134257;27;20204;-78
2022/06/13 15:35:16;;;;;;;22.92;21.42;;;;;;;-141.02;75.15;83687.50;5135296;27;20201;-80
2022/06/13 15:37:47;;;;;;;22.70;21.20;;;;;;;-141.02;77.40;83722.47;5134310;27;20280;-78
2022/06/13 15:40:22;;;;;;;22.75;21.25;;;;;;;-141.02;80.75;83827.38;5133860;27;20237;-77
2022/06/13 15:42:51;;;;;;;22.20;20.80;;;;;;;-141.02;84.11;83881.78;5134300;27;20642;-78
2022/06/13 15:45:25;;;;;;;22.20;20.80;;;;;;;-141.02;86.98;83895.41;5133831;27;20703;-79
2022/06/13 15:47:53;;;;;;;21.58;20.27;;;;;;;-141.02;87.95;83940.09;5133840;27;20181;-79
2022/06/13 15:50:23;;;;;;;21.90;20.60;;;;;;;-141.02;91.03;83959.50;5133776;27;20394;-80
2022/06/13 15:52:51;;;;;;;22.30;21.00;;;;;;;-141.02;91.60;83943.97;5134014;27;20185;-79
2022/06/13 15:55:22;;;;;;;21.02;19.83;;;;;;;-141.02;93.22;84000.31;5133694;27;20192;-79
2022/06/13 15:57:51;;;;;;;21.38;20.17;;;;;;;-141.02;96.14;83996.44;5133923;27;20271;-80
2022/06/13 16:00:33;;;;;;;21.90;20.70;;;;;;;-141.02;97.68;83928.44;5133457;27;20287;-79
2022/06/13 16:03:05;;;;;;;21.65;20.45;;;;;;;-141.02;97.91;83656.41;5133823;27;20220;-79
2022/06/13 16:05:34;;;;;;;21.38;20.17;;;;;;;-141.02;98.72;84064.44;5133848;27;20192;-79
2022/06/13 16:08:05;;;;;;;20.80;19.60;;;;;;;-141.02;100.00;84033.34;5133741;27;20224;-79
2022/06/13 16:10:37;;;;;;;20.60;19.50;;;;;;;-141.02;100.00;84099.41;5133774;27;20279;-79
2022/06/13 16:13:08;;;;;;;20.75;19.65;;;;;;;-141.02;100.00;84111.06;5133397;27;20188;-76
2022/06/13 16:15:42;;;;;;;20.67;19.58;;;;;;;-141.02;99.56;84087.75;5133096;27;20320;-78
2022/06/13 16:18:28;;;;;;;20.50;19.40;;;;;;;-141.02;100.00;55844.97;5133638;27;20253;-78
2022/06/13 16:20:56;;;;;;;20.75;19.65;;;;;;;-141.02;100.00;84157.72;5133500;27;20205;-77
2022/06/13 16:23:25;;;;;;;20.15;19.05;;;;;;;-141.02;100.00;84126.63;5133517;27;20223;-79
2022/06/13 16:25:52;;;;;;;20.88;19.77;;;;;;;-141.02;100.00;84157.72;5133504;27;20195;-79
2022/06/13 16:28:22;;;;;;;19.80;18.70;;;;;;;-141.02;100.00;84167.44;5133193;27;20645;-79
2022/06/13 16:30:53;;;;;;;20.02;18.95;;;;;;;-141.02;100.00;55844.97;5133153;27;20214;-75
2022/06/13 16:33:23;;;;;;;20.17;19.08;;;;;;;-141.02;100.00;84165.50;5133138;27;20239;-76
2022/06/13 16:35:53;;;;;;;20.38;19.27;;;;;;;-141.02;100.00;55844.97;5133685;27;20188;-76
2022/06/13 16:38:21;;;;;;;20.45;19.35;;;;;;;-141.02;100.00;84161.59;5133108;27;20199;-77
2022/06/13 16:40:50;;;;;;;20.30;19.20;;;;;;;-141.02;100.00;84165.50;5133766;27;20671;-76
2022/06/13 16:43:29;;;;;;;20.92;19.77;;;;;;;-141.02;100.00;84153.81;5133314;27;20192;-76
2022/06/13 16:46:10;;;;;;;21.05;19.85;;;;;;;-141.02;100.00;84161.59;5133026;27;20195;-76
2022/06/13 16:48:44;;;;;;;20.10;19.10;;;;;;;-141.02;100.00;84157.72;5133306;27;20185;-77
2022/06/13 16:51:14;;;;;;;20.90;19.80;;;;;;;-141.02;100.00;84122.75;5132797;27;20220;-78
2022/06/13 16:53:49;;;;;;;20.02;19.02;;;;;;;-141.02;100.00;84006.16;5133001;27;20189;-77
2022/06/13 16:56:18;;;;;;;20.17;19.08;;;;;;;-141.02;100.00;84140.22;5133061;27;20569;-77
2022/06/13 16:58:48;;;;;;;20.45;19.35;;;;;;;-141.02;100.00;84181.03;5133132;27;20197;-77
2022/06/13 17:01:17;;;;;;;20.40;19.30;;;;;;;-141.02;100.00;84194.63;5132986;27;20231;-77
2022/06/13 17:03:56;;;;;;;20.38;19.30;;;;;;;-141.02;100.00;84216.00;5132784;27;20577;-78
2022/06/13 17:06:39;;;;;;;20.15;19.15;;;;;;;-141.02;100.00;84221.84;5132858;27;20637;-76
2022/06/13 17:09:11;;;;;;;20.27;19.17;;;;;;;-141.02;100.00;84068.31;5132753;27;20737;-77
2022/06/13 17:12:01;;;;;;;20.80;19.70;;;;;;;-141.02;100.00;84233.50;5132810;27;20231;-77
2022/06/13 17:14:57;;;;;;;20.45;19.35;;;;;;;-141.02;100.00;84216.00;5133545;28;20189;-75
2022/06/13 17:17:36;;;;;;;19.90;18.80;;;;;;;-141.02;100.00;84227.66;5132697;27;20199;-78
2022/06/13 17:20:10;;;;;;;20.58;19.48;;;;;;;-141.02;100.00;84256.81;5133012;27;20263;-78
2022/06/13 17:22:38;;;;;;;20.17;19.08;;;;;;;-94.73;100.00;55844.97;5132891;27;20244;-76
2022/06/13 17:25:06;;;;;;;20.70;19.50;;;;;;;-141.02;100.00;84243.22;5132942;27;20203;-77
2022/06/13 17:33:05;;;;;;;20.75;19.65;;;;;;;-141.02;100.00;84247.09;5136562;27;20192;-78
2022/06/13 17:35:33;;;;;;;20.98;19.77;;;;;;;-141.02;100.00;84262.66;5136311;27;20197;-77
2022/06/13 17:38:00;;;;;;;19.85;18.75;;;;;;;-141.02;100.00;84251.00;5136639;27;20247;-79
2022/06/13 17:40:29;;;;;;;20.25;19.15;;;;;;;-141.02;100.00;84328.31;5136597;27;20241;-78
2022/06/13 17:42:57;;;;;;;20.08;18.98;;;;;;;-141.02;100.00;84324.84;5136126;27;20232;-78
2022/06/13 17:45:25;;;;;;;19.75;18.65;;;;;;;-141.02;100.00;84371.09;5136164;27;20196;-78
2022/06/13 17:47:52;;;;;;;19.48;18.48;;;;;;;-141.02;100.00;55845.25;5136103;27;20192;-78
2022/06/13 17:50:26;;;;;;;20.05;18.95;;;;;;;-141.02;100.00;55844.97;5135916;27;20232;-77
2022/06/13 17:52:54;;;;;;;20.02;19.02;;;;;;;-141.02;100.00;107971.00;5136337;27;20267;-77
2022/06/13 17:55:22;;;;;;;19.95;18.95;;;;;;;-141.02;100.00;55844.97;5136015;27;20196;-77
2022/06/13 17:57:50;;;;;;;20.05;19.05;;;;;;;-141.02;100.00;55844.97;5135942;27;20569;-76
2022/06/13 18:00:20;;;;;;;19.95;18.95;;;;;;;-99.87;100.00;55844.97;5135914;27;20288;-79
2022/06/13 18:02:50;;;;;;;20.25;19.25;;;;;;;-141.02;0.00;55844.97;5135778;27;20223;-78
2022/06/13 18:05:18;;;;;;;20.05;19.05;;;;;;;-141.02;0.00;55844.97;5136178;27;20268;-78
2022/06/13 18:08:36;;;;;;;20.23;19.23;;;;;;;-141.02;100.00;55844.97;5135709;27;20196;-77
2022/06/13 18:11:23;;;;;;;20.52;19.52;;;;;;;-141.02;100.00;55844.97;5135646;27;20721;-78
2022/06/13 18:14:47;;;;;;;19.75;18.75;;;;;;;-141.02;100.00;55844.97;5136034;27;20265;-78
2022/06/13 18:18:08;;;;;;;19.45;18.45;;;;;;;-141.02;100.00;55844.97;5135580;27;20283;-77
2022/06/13 18:21:17;;;;;;;19.88;18.88;;;;;;;-141.02;100.00;55844.97;5135523;27;20287;-77